createdAt,value
2019-03-03T00:02:14.993Z,10.30
2019-03-03T00:04:42.187Z,10.20
2019-03-03T00:07:09.431Z,10.10
2019-03-03T00:09:36.855Z,10.10
2019-03-03T00:12:04.176Z,10.10
2019-03-03T00:14:32.371Z,10.10
2019-03-03T00:16:59.940Z,10.10
2019-03-03T00:19:27.399Z,10.10
2019-03-03T00:21:54.327Z,10.10
2019-03-03T00:24:23.555Z,10.20
2019-03-03T00:26:50.459Z,10.20
2019-03-03T00:29:17.416Z,10.00
2019-03-03T00:31:44.790Z,10.10
2019-03-03T00:34:11.924Z,10.10
2019-03-03T00:36:57.111Z,10.10
2019-03-03T00:39:45.559Z,10.00
2019-03-03T00:42:23.875Z,10.00
2019-03-03T00:45:04.301Z,10.00
2019-03-03T00:47:44.743Z,10.00
2019-03-03T00:50:26.744Z,9.90
2019-03-03T00:53:02.032Z,9.90
2019-03-03T00:55:51.929Z,9.80
2019-03-03T00:58:41.832Z,9.80
2019-03-03T01:01:29.527Z,9.80
2019-03-03T01:04:10.829Z,9.80
2019-03-03T01:06:47.015Z,9.80
2019-03-03T01:09:26.954Z,9.90
2019-03-03T01:12:20.579Z,9.90
2019-03-03T01:15:10.303Z,9.90
2019-03-03T01:17:56.387Z,9.90
2019-03-03T01:20:32.556Z,9.90
2019-03-03T01:23:18.995Z,9.90
2019-03-03T01:25:46.631Z,9.90
2019-03-03T01:28:13.917Z,9.80
2019-03-03T01:30:41.278Z,9.90
2019-03-03T01:33:08.698Z,10.00
2019-03-03T01:35:35.593Z,9.90
2019-03-03T01:38:05.115Z,9.80
2019-03-03T01:40:32.880Z,9.70
2019-03-03T01:43:00.043Z,9.60
2019-03-03T01:45:27.391Z,9.70
2019-03-03T01:47:55.341Z,9.70
2019-03-03T01:50:22.788Z,9.70
2019-03-03T01:52:50.091Z,9.70
2019-03-03T01:55:17.628Z,9.80
2019-03-03T01:57:44.866Z,9.80
2019-03-03T02:00:17.674Z,9.80
2019-03-03T02:02:45.626Z,9.70
2019-03-03T02:05:13.219Z,9.70
2019-03-03T02:07:40.237Z,9.70
2019-03-03T02:10:07.796Z,9.60
2019-03-03T02:12:35.811Z,9.60
2019-03-03T02:15:03.461Z,9.60
2019-03-03T02:17:33.280Z,9.60
2019-03-03T02:20:00.865Z,9.60
2019-03-03T02:22:28.030Z,9.60
2019-03-03T02:24:55.432Z,9.60
2019-03-03T02:27:23.096Z,9.70
2019-03-03T02:29:50.356Z,9.70
2019-03-03T02:32:17.353Z,9.70
2019-03-03T02:34:45.131Z,9.70
2019-03-03T02:37:12.133Z,9.80
2019-03-03T02:39:39.379Z,9.70
2019-03-03T02:42:06.844Z,9.80
2019-03-03T02:44:33.973Z,9.80
2019-03-03T02:47:02.223Z,9.80
2019-03-03T02:49:30.194Z,9.80
2019-03-03T02:51:57.457Z,9.80
2019-03-03T02:54:25.040Z,9.80
2019-03-03T02:56:52.566Z,9.80
2019-03-03T02:59:19.482Z,9.70
2019-03-03T03:01:54.814Z,9.80
2019-03-03T03:04:21.864Z,9.70
2019-03-03T03:07:05.984Z,9.70
2019-03-03T03:09:55.828Z,9.70
2019-03-03T03:12:32.522Z,9.70
2019-03-03T03:15:12.680Z,9.60
2019-03-03T03:17:58.519Z,9.60
2019-03-03T03:20:48.277Z,9.60
2019-03-03T03:23:34.207Z,9.70
2019-03-03T03:26:21.282Z,9.70
2019-03-03T03:29:06.236Z,9.70
2019-03-03T03:31:51.872Z,9.70
2019-03-03T03:34:26.551Z,9.60
2019-03-03T03:37:04.557Z,9.60
2019-03-03T03:39:50.103Z,9.50
2019-03-03T03:42:36.740Z,9.50
2019-03-03T03:45:36.968Z,9.50
2019-03-03T03:48:21.475Z,9.50
2019-03-03T03:51:06.994Z,9.50
2019-03-03T03:53:46.496Z,9.50
2019-03-03T03:56:36.992Z,9.60
2019-03-03T03:59:12.647Z,9.60
2019-03-03T04:01:52.711Z,9.50
2019-03-03T04:04:29.604Z,9.50
2019-03-03T04:07:10.112Z,9.40
2019-03-03T04:09:52.153Z,9.50
2019-03-03T04:12:37.733Z,9.50
2019-03-03T04:15:10.633Z,9.40
2019-03-03T04:18:00.625Z,9.50
2019-03-03T04:20:34.111Z,9.50
2019-03-03T04:23:22.987Z,9.40
2019-03-03T04:26:10.880Z,9.40
2019-03-03T04:28:48.640Z,9.40
2019-03-03T04:31:49.941Z,9.50
2019-03-03T04:34:45.672Z,9.60
2019-03-03T04:37:19.482Z,9.60
2019-03-03T04:40:07.475Z,9.60
2019-03-03T04:43:09.575Z,9.70
2019-03-03T04:46:05.517Z,9.80
2019-03-03T04:48:51.107Z,9.90
2019-03-03T04:51:37.393Z,10.00
2019-03-03T04:54:24.339Z,10.10
2019-03-03T04:57:05.075Z,10.20
2019-03-03T04:59:57.918Z,10.20
2019-03-03T05:02:56.741Z,10.20
2019-03-03T05:05:45.827Z,10.30
2019-03-03T05:08:30.974Z,10.40
2019-03-03T05:11:23.459Z,10.50
2019-03-03T05:13:54.791Z,10.50
2019-03-03T05:16:40.253Z,10.50
2019-03-03T05:19:36.474Z,10.50
2019-03-03T05:22:04.123Z,10.40
2019-03-03T05:24:34.506Z,10.30
2019-03-03T05:27:01.636Z,10.30
2019-03-03T05:29:29.194Z,10.30
2019-03-03T05:31:56.380Z,10.30
2019-03-03T05:34:24.188Z,10.30
2019-03-03T05:36:51.628Z,10.30
2019-03-03T05:39:18.615Z,10.30
2019-03-03T05:41:45.873Z,10.20
2019-03-03T05:44:13.274Z,10.20
2019-03-03T05:46:40.470Z,10.10
2019-03-03T05:49:07.712Z,10.10
2019-03-03T05:51:35.358Z,10.20
2019-03-03T05:54:03.462Z,10.20
2019-03-03T05:56:31.871Z,10.20
2019-03-03T05:58:59.141Z,10.30
2019-03-03T06:01:26.634Z,10.30
2019-03-03T06:03:54.271Z,10.30
2019-03-03T06:06:21.731Z,10.50
2019-03-03T06:08:49.035Z,10.50
2019-03-03T06:11:16.743Z,10.30
2019-03-03T06:13:44.073Z,10.30
2019-03-03T06:16:12.391Z,10.30
2019-03-03T06:18:39.826Z,10.30
2019-03-03T06:21:07.240Z,10.30
2019-03-03T06:23:34.136Z,10.30
2019-03-03T06:26:01.470Z,10.30
2019-03-03T06:28:28.675Z,10.30
2019-03-03T06:30:55.834Z,10.30
2019-03-03T06:33:23.874Z,10.30
2019-03-03T06:35:52.772Z,10.30
2019-03-03T06:38:20.332Z,10.30
2019-03-03T06:40:47.631Z,10.20
2019-03-03T06:43:14.810Z,10.20
2019-03-03T06:45:41.965Z,10.20
2019-03-03T06:48:08.903Z,10.20
2019-03-03T06:50:36.222Z,10.30
2019-03-03T06:53:03.851Z,10.30
2019-03-03T06:55:30.751Z,10.30
2019-03-03T06:57:58.298Z,10.40
2019-03-03T07:00:25.334Z,10.30
2019-03-03T07:02:52.767Z,10.40
2019-03-03T07:05:20.047Z,10.40
2019-03-03T07:07:47.778Z,10.40
2019-03-03T07:10:14.852Z,10.30
2019-03-03T07:12:42.794Z,10.30
2019-03-03T07:15:12.290Z,10.40
2019-03-03T07:17:39.405Z,10.40
2019-03-03T07:20:07.682Z,10.40
2019-03-03T07:22:34.873Z,10.50
2019-03-03T07:25:04.299Z,10.50
2019-03-03T07:27:31.890Z,10.40
2019-03-03T07:29:59.087Z,10.30
2019-03-03T07:32:26.956Z,10.30
2019-03-03T07:34:54.086Z,10.30
2019-03-03T07:37:21.354Z,10.30
2019-03-03T07:39:48.880Z,10.40
2019-03-03T07:42:16.192Z,10.40
2019-03-03T07:44:43.494Z,10.40
2019-03-03T07:47:10.984Z,10.40
2019-03-03T07:49:38.725Z,10.40
2019-03-03T07:52:25.373Z,10.50
2019-03-03T07:54:53.120Z,10.50
2019-03-03T07:57:20.330Z,10.60
2019-03-03T07:59:47.372Z,10.60
2019-03-03T08:02:16.233Z,10.60
2019-03-03T08:04:43.975Z,10.60
2019-03-03T08:07:30.895Z,10.60
2019-03-03T08:09:58.527Z,10.70
2019-03-03T08:12:25.863Z,10.70
2019-03-03T08:14:53.618Z,10.70
2019-03-03T08:17:21.132Z,10.90
2019-03-03T08:19:48.383Z,10.80
2019-03-03T08:22:16.138Z,10.70
2019-03-03T08:24:43.545Z,10.90
2019-03-03T08:27:10.623Z,10.80
2019-03-03T08:29:38.247Z,10.80
2019-03-03T08:32:05.303Z,10.80
2019-03-03T08:34:32.473Z,11.00
2019-03-03T08:37:00.310Z,11.00
2019-03-03T08:39:27.735Z,11.00
2019-03-03T08:42:01.061Z,11.10
2019-03-03T08:44:47.834Z,11.20
2019-03-03T08:47:31.802Z,11.20
2019-03-03T08:50:30.227Z,11.30
2019-03-03T08:53:25.431Z,11.40
2019-03-03T08:56:11.139Z,11.50
2019-03-03T08:58:44.186Z,11.50
2019-03-03T09:01:29.547Z,11.50
2019-03-03T09:04:03.405Z,11.40
2019-03-03T09:06:39.811Z,11.50
2019-03-03T09:09:30.005Z,11.50
2019-03-03T09:12:10.615Z,11.50
2019-03-03T09:15:03.918Z,11.50
2019-03-03T09:17:40.119Z,11.60
2019-03-03T09:20:33.900Z,11.60
2019-03-03T09:23:08.697Z,11.60
2019-03-03T09:26:01.714Z,11.70
2019-03-03T09:28:47.722Z,11.60
2019-03-03T09:31:26.492Z,11.60
2019-03-03T09:37:09.413Z,11.70
2019-03-03T09:39:55.498Z,11.70
2019-03-03T09:42:40.728Z,11.70
2019-03-03T09:45:25.500Z,11.80
2019-03-03T09:48:25.464Z,11.90
2019-03-03T09:51:08.120Z,11.90
2019-03-03T09:53:54.371Z,11.90
2019-03-03T09:56:41.485Z,12.00
2019-03-03T09:59:25.468Z,12.10
2019-03-03T10:02:11.961Z,12.10
2019-03-03T10:05:11.671Z,12.20
2019-03-03T10:07:50.477Z,12.20
2019-03-03T10:10:41.336Z,12.20
2019-03-03T10:13:34.605Z,12.10
2019-03-03T10:16:07.631Z,12.10
2019-03-03T10:18:56.243Z,12.00
2019-03-03T10:21:31.239Z,12.10
2019-03-03T10:24:06.245Z,12.20
2019-03-03T10:27:01.662Z,12.30
2019-03-03T10:29:41.958Z,12.20
2019-03-03T10:32:21.286Z,12.10
2019-03-03T10:35:08.579Z,12.10
2019-03-03T10:37:42.366Z,12.00
2019-03-03T10:40:48.041Z,12.10
2019-03-03T10:43:23.180Z,12.10
2019-03-03T10:46:04.631Z,12.10
2019-03-03T10:48:41.122Z,12.10
2019-03-03T10:51:32.732Z,12.10
2019-03-03T10:54:15.460Z,12.10
2019-03-03T10:57:15.618Z,12.10
2019-03-03T11:00:05.241Z,12.10
2019-03-03T11:02:57.829Z,12.10
2019-03-03T11:05:44.429Z,12.00
2019-03-03T11:08:43.101Z,12.10
2019-03-03T11:11:31.554Z,12.10
2019-03-03T11:14:21.854Z,12.20
2019-03-03T11:16:59.980Z,12.40
2019-03-03T11:19:44.035Z,12.40
2019-03-03T11:22:31.226Z,12.40
2019-03-03T11:25:14.151Z,12.40
2019-03-03T11:28:03.827Z,12.30
2019-03-03T11:30:46.561Z,12.30
2019-03-03T11:33:34.082Z,12.30
2019-03-03T11:36:21.294Z,12.20
2019-03-03T11:39:24.696Z,12.20
2019-03-03T11:41:58.524Z,12.30
2019-03-03T11:45:01.301Z,12.40
2019-03-03T11:47:41.305Z,12.40
2019-03-03T11:50:17.579Z,12.40
2019-03-03T11:53:19.985Z,12.30
2019-03-03T11:55:54.238Z,12.20
2019-03-03T11:58:30.500Z,12.30
2019-03-03T12:01:16.783Z,12.30
2019-03-03T12:03:55.619Z,12.30
2019-03-03T12:06:41.164Z,12.30
2019-03-03T12:09:29.332Z,12.30
2019-03-03T12:12:28.673Z,12.50
2019-03-03T12:15:04.285Z,12.50
2019-03-03T12:17:56.136Z,12.50
2019-03-03T12:20:44.090Z,12.50
2019-03-03T12:23:32.868Z,12.50
2019-03-03T12:26:19.608Z,12.60
2019-03-03T12:29:05.708Z,12.50
2019-03-03T12:31:58.752Z,12.50
2019-03-03T12:34:54.982Z,12.60
2019-03-03T12:37:40.094Z,12.60
2019-03-03T12:40:26.504Z,12.50
2019-03-03T12:43:16.949Z,12.50
2019-03-03T12:46:05.087Z,12.60
2019-03-03T12:48:42.099Z,12.50
2019-03-03T12:51:24.282Z,12.40
2019-03-03T12:54:13.369Z,12.40
2019-03-03T12:56:46.688Z,12.50
2019-03-03T12:59:37.682Z,12.60
2019-03-03T13:02:23.547Z,12.60
2019-03-03T13:04:58.796Z,12.50
2019-03-03T13:07:46.091Z,12.50
2019-03-03T13:10:34.467Z,12.60
2019-03-03T13:13:11.960Z,12.50
2019-03-03T13:15:58.652Z,12.50
2019-03-03T13:18:44.534Z,12.40
2019-03-03T13:21:27.473Z,12.40
2019-03-03T13:24:01.095Z,12.60
2019-03-03T13:26:46.534Z,12.60
2019-03-03T13:29:32.176Z,12.60
2019-03-03T13:32:17.496Z,12.70
2019-03-03T13:35:05.125Z,12.70
2019-03-03T13:37:58.201Z,12.80
2019-03-03T13:40:45.223Z,12.70
2019-03-03T13:43:13.594Z,12.80
2019-03-03T13:45:42.280Z,12.80
2019-03-03T13:48:10.148Z,12.80
2019-03-03T13:50:37.382Z,12.80
2019-03-03T13:53:24.369Z,12.90
2019-03-03T13:55:51.615Z,12.90
2019-03-03T13:58:19.040Z,12.80
2019-03-03T14:00:46.788Z,12.70
2019-03-03T14:03:14.498Z,12.70
2019-03-03T14:05:42.011Z,12.70
2019-03-03T14:08:10.592Z,12.70
2019-03-03T14:10:38.495Z,12.60
2019-03-03T14:13:06.125Z,12.80
2019-03-03T14:15:33.203Z,12.70
2019-03-03T14:18:00.245Z,12.80
2019-03-03T14:20:28.000Z,12.80
2019-03-03T14:22:55.765Z,12.60
2019-03-03T14:25:23.112Z,12.50
2019-03-03T14:27:50.983Z,12.50
2019-03-03T14:30:20.024Z,12.50
2019-03-03T14:32:47.991Z,12.50
2019-03-03T14:35:15.517Z,12.40
2019-03-03T14:37:43.118Z,12.50
2019-03-03T14:40:11.079Z,12.50
2019-03-03T14:42:39.106Z,12.40
2019-03-03T14:45:09.092Z,12.40
2019-03-03T14:47:37.524Z,12.50
2019-03-03T14:50:05.840Z,12.60
2019-03-03T14:52:33.363Z,12.60
2019-03-03T14:55:01.010Z,12.50
2019-03-03T14:57:28.963Z,12.50
2019-03-03T14:59:56.206Z,12.50
2019-03-03T15:02:24.281Z,12.50
2019-03-03T15:04:51.835Z,12.50
2019-03-03T15:07:20.232Z,12.50
2019-03-03T15:09:47.428Z,12.40
2019-03-03T15:12:15.071Z,12.30
2019-03-03T15:14:43.198Z,12.30
2019-03-03T15:17:11.077Z,12.30
2019-03-03T15:19:38.060Z,12.20
2019-03-03T15:22:05.579Z,12.20
2019-03-03T15:24:33.555Z,12.20
2019-03-03T15:27:04.445Z,12.30
2019-03-03T15:29:31.770Z,12.20
2019-03-03T15:31:59.048Z,12.30
2019-03-03T15:34:27.250Z,12.30
2019-03-03T15:36:55.592Z,12.30
2019-03-03T15:39:22.808Z,12.30
2019-03-03T15:41:51.614Z,12.30
2019-03-03T15:44:19.144Z,12.30
2019-03-03T15:46:46.615Z,12.20
2019-03-03T15:49:14.290Z,12.40
2019-03-03T15:51:41.704Z,12.40
2019-03-03T15:54:10.430Z,12.40
2019-03-03T15:56:38.201Z,12.30
2019-03-03T15:59:06.036Z,12.40
2019-03-03T16:01:33.507Z,12.40
2019-03-03T16:04:01.091Z,12.40
2019-03-03T16:06:28.151Z,12.40
2019-03-03T16:08:55.760Z,12.30
2019-03-03T16:11:23.555Z,12.30
2019-03-03T16:13:51.309Z,12.20
2019-03-03T16:16:18.804Z,12.20
2019-03-03T16:18:47.133Z,12.30
2019-03-03T16:21:14.796Z,12.30
2019-03-03T16:23:42.079Z,12.30
2019-03-03T16:26:10.654Z,12.20
2019-03-03T16:28:38.293Z,12.30
2019-03-03T16:31:05.672Z,12.20
2019-03-03T16:33:33.631Z,12.20
2019-03-03T16:36:01.532Z,12.20
2019-03-03T16:38:29.046Z,12.20
2019-03-03T16:40:56.533Z,12.10
2019-03-03T16:43:23.888Z,12.20
2019-03-03T16:45:52.915Z,12.10
2019-03-03T16:48:20.826Z,12.10
2019-03-03T16:50:48.704Z,12.10
2019-03-03T16:53:16.579Z,12.10
2019-03-03T16:55:44.205Z,12.10
2019-03-03T16:58:11.907Z,12.10
2019-03-03T17:00:39.131Z,12.20
2019-03-03T17:03:06.791Z,12.20
2019-03-03T17:05:34.841Z,12.20
2019-03-03T17:08:02.210Z,12.30
2019-03-03T17:10:29.628Z,12.20
2019-03-03T17:12:57.078Z,12.20
2019-03-03T17:15:25.816Z,12.20
2019-03-03T17:17:53.500Z,12.20
2019-03-03T17:20:20.956Z,12.20
2019-03-03T17:22:48.629Z,12.30
2019-03-03T17:25:17.402Z,12.30
2019-03-03T17:27:44.977Z,12.40
2019-03-03T17:30:14.386Z,12.40
2019-03-03T17:32:41.488Z,12.40
2019-03-03T17:35:08.980Z,12.40
2019-03-03T17:37:43.902Z,12.30
2019-03-03T17:40:13.551Z,12.10
2019-03-03T17:42:41.188Z,12.20
2019-03-03T17:45:11.119Z,12.20
2019-03-03T17:47:38.626Z,12.10
2019-03-03T17:50:07.901Z,12.10
2019-03-03T17:52:35.616Z,12.10
2019-03-03T17:55:03.380Z,12.10
2019-03-03T17:57:31.618Z,12.10
2019-03-03T17:59:58.633Z,12.20
2019-03-03T18:02:26.020Z,12.20
2019-03-03T18:04:56.065Z,12.10
2019-03-03T18:07:23.537Z,12.20
2019-03-03T18:09:57.130Z,12.10
2019-03-03T18:12:25.772Z,12.00
2019-03-03T18:14:53.503Z,11.90
2019-03-03T18:17:21.680Z,11.90
2019-03-03T18:19:49.065Z,11.90
2019-03-03T18:22:16.543Z,11.90
2019-03-03T18:24:43.453Z,12.00
2019-03-03T18:27:11.390Z,12.00
2019-03-03T18:29:38.867Z,12.00
2019-03-03T18:32:06.268Z,12.00
2019-03-03T18:34:34.066Z,11.80
2019-03-03T18:37:01.958Z,12.00
2019-03-03T18:39:29.904Z,12.00
2019-03-03T18:41:57.384Z,12.00
2019-03-03T18:44:24.958Z,11.90
2019-03-03T18:46:52.179Z,11.80
2019-03-03T18:49:19.424Z,11.80
2019-03-03T18:51:46.573Z,11.80
2019-03-03T18:54:14.961Z,11.70
2019-03-03T18:56:42.165Z,11.70
2019-03-03T18:59:09.887Z,11.80
2019-03-03T19:01:37.238Z,11.70
2019-03-03T19:04:05.035Z,11.70
2019-03-03T19:06:32.400Z,11.70
2019-03-03T19:09:00.100Z,11.70
2019-03-03T19:11:30.131Z,11.70
2019-03-03T19:13:57.837Z,11.60
2019-03-03T19:16:26.193Z,11.60
2019-03-03T19:18:53.743Z,11.60
2019-03-03T19:21:21.540Z,11.70
2019-03-03T19:23:49.528Z,11.70
2019-03-03T19:26:18.923Z,11.70
2019-03-03T19:28:47.564Z,11.80
2019-03-03T19:31:20.869Z,11.80
2019-03-03T19:33:50.582Z,11.90
2019-03-03T19:36:17.915Z,11.90
2019-03-03T19:38:45.276Z,12.00
2019-03-03T19:41:12.588Z,12.20
2019-03-03T19:43:39.877Z,12.20
2019-03-03T19:46:07.149Z,12.20
2019-03-03T19:48:35.954Z,12.10
2019-03-03T19:51:03.966Z,12.00
2019-03-03T19:53:31.694Z,12.00
2019-03-03T19:55:58.834Z,11.90
2019-03-03T19:58:26.958Z,11.90
2019-03-03T20:00:58.645Z,12.00
2019-03-03T20:03:27.131Z,12.00
2019-03-03T20:05:54.695Z,12.10
2019-03-03T20:08:22.442Z,12.10
2019-03-03T20:10:49.510Z,12.10
2019-03-03T20:13:17.586Z,12.10
2019-03-03T20:15:45.332Z,12.00
2019-03-03T20:18:12.927Z,12.10
2019-03-03T20:20:41.268Z,12.10
2019-03-03T20:23:08.560Z,12.10
2019-03-03T20:25:36.165Z,12.10
2019-03-03T20:28:03.882Z,12.20
2019-03-03T20:30:31.483Z,12.20
2019-03-03T20:32:59.207Z,12.10
2019-03-03T20:35:27.241Z,12.10
2019-03-03T20:37:55.090Z,12.10
2019-03-03T20:40:22.816Z,12.10
2019-03-03T20:42:50.635Z,12.20
2019-03-03T20:45:19.629Z,12.20
2019-03-03T20:47:47.245Z,12.10
2019-03-03T20:50:16.553Z,12.10
2019-03-03T20:52:43.776Z,12.10
2019-03-03T20:55:12.553Z,12.10
2019-03-03T20:57:40.748Z,12.20
2019-03-03T21:00:11.760Z,12.30
2019-03-03T21:02:39.313Z,12.30
2019-03-03T21:05:06.844Z,12.40
2019-03-03T21:07:34.706Z,12.40
2019-03-03T21:10:02.279Z,12.50
2019-03-03T21:12:30.367Z,12.50
2019-03-03T21:14:58.475Z,12.50
2019-03-03T21:17:25.779Z,12.50
2019-03-03T21:19:53.358Z,12.40
2019-03-03T21:22:20.804Z,12.50
2019-03-03T21:24:49.264Z,12.50
2019-03-03T21:27:16.842Z,12.40
2019-03-03T21:29:44.727Z,12.50
2019-03-03T21:32:11.691Z,12.60
2019-03-03T21:34:38.821Z,12.60
2019-03-03T21:37:06.181Z,12.60
2019-03-03T21:39:34.246Z,12.50
2019-03-03T21:42:02.857Z,12.50
2019-03-03T21:44:29.865Z,12.50
2019-03-03T21:46:57.791Z,12.40
2019-03-03T21:49:25.231Z,12.30
2019-03-03T21:51:52.700Z,12.10
2019-03-03T21:54:19.659Z,11.90
2019-03-03T21:56:46.612Z,11.90
2019-03-03T21:59:18.233Z,11.90
2019-03-03T22:01:45.232Z,11.80
2019-03-03T22:04:12.539Z,11.70
2019-03-03T22:06:40.498Z,11.60
2019-03-03T22:09:08.647Z,11.50
2019-03-03T22:11:40.339Z,11.40
2019-03-03T22:14:07.595Z,11.40
2019-03-03T22:16:35.635Z,11.30
2019-03-03T22:19:03.086Z,11.20
2019-03-03T22:21:30.382Z,11.20
2019-03-03T22:23:58.727Z,11.10
2019-03-03T22:26:26.075Z,11.10
2019-03-03T22:28:53.189Z,11.10
2019-03-03T22:31:39.846Z,11.10
2019-03-03T22:34:07.428Z,11.30
2019-03-03T22:36:34.465Z,11.30
2019-03-03T22:39:02.125Z,11.30
2019-03-03T22:41:32.200Z,11.20
2019-03-03T22:43:59.105Z,11.10
2019-03-03T22:46:26.152Z,11.00
2019-03-03T22:48:53.610Z,10.90
2019-03-03T22:51:21.995Z,10.80
2019-03-03T22:53:49.817Z,10.80
2019-03-03T22:56:17.364Z,10.60
2019-03-03T22:58:44.522Z,10.60
2019-03-03T23:01:25.840Z,10.50
2019-03-03T23:04:17.951Z,10.70
2019-03-03T23:06:49.802Z,10.70
2019-03-03T23:10:12.468Z,10.70
2019-03-03T23:13:22.893Z,10.70
2019-03-03T23:16:37.083Z,10.70
2019-03-03T23:19:51.651Z,10.70
2019-03-03T23:22:43.023Z,10.50
2019-03-03T23:25:47.824Z,10.50
2019-03-03T23:28:16.118Z,10.40
2019-03-03T23:30:43.826Z,10.40
2019-03-03T23:33:11.499Z,10.50
2019-03-03T23:35:38.874Z,10.40
2019-03-03T23:38:06.293Z,10.40
2019-03-03T23:40:33.963Z,10.40
2019-03-03T23:43:02.461Z,10.50
2019-03-03T23:45:29.898Z,10.60
2019-03-03T23:47:56.844Z,10.50
2019-03-03T23:50:24.306Z,10.50
2019-03-03T23:52:52.075Z,10.50
2019-03-03T23:55:19.736Z,10.50
2019-03-03T23:57:46.769Z,10.40
